createdAt,value
2022-12-03T00:01:14.540Z,3.18
2022-12-03T00:04:17.533Z,3.09
2022-12-03T00:07:20.035Z,3.18
2022-12-03T00:10:24.276Z,3.21
2022-12-03T00:13:26.841Z,3.14
2022-12-03T00:16:29.935Z,3.05
2022-12-03T00:19:32.549Z,3.18
2022-12-03T00:22:35.530Z,3.26
2022-12-03T00:25:38.005Z,3.28
2022-12-03T00:28:41.173Z,3.19
2022-12-03T00:31:45.621Z,3.19
2022-12-03T00:34:49.584Z,3.17
2022-12-03T00:37:52.157Z,3.23
2022-12-03T00:40:55.014Z,3.26
2022-12-03T00:43:57.720Z,3.29
2022-12-03T00:47:00.742Z,3.30
2022-12-03T00:50:05.196Z,3.12
2022-12-03T00:53:08.164Z,3.30
2022-12-03T00:56:10.746Z,3.25
2022-12-03T00:59:15.935Z,3.36
2022-12-03T01:02:18.658Z,3.47
2022-12-03T01:05:21.634Z,3.30
2022-12-03T01:08:24.366Z,3.12
2022-12-03T01:11:39.234Z,3.01
2022-12-03T01:14:41.893Z,3.16
2022-12-03T01:17:46.033Z,3.24
2022-12-03T01:20:48.657Z,3.32
2022-12-03T01:23:51.501Z,3.10
2022-12-03T01:26:55.998Z,3.15
2022-12-03T01:30:00.107Z,3.27
2022-12-03T01:33:02.751Z,3.09
2022-12-03T01:36:06.040Z,3.07
2022-12-03T01:39:09.739Z,3.22
2022-12-03T01:42:17.477Z,3.24
2022-12-03T01:45:24.147Z,3.31
2022-12-03T01:48:28.292Z,3.19
2022-12-03T01:51:31.226Z,3.04
2022-12-03T01:54:41.298Z,3.06
2022-12-03T01:57:50.499Z,2.95
2022-12-03T02:00:53.590Z,2.88
2022-12-03T02:03:59.093Z,2.90
2022-12-03T02:07:32.607Z,3.08
2022-12-03T02:10:36.402Z,3.18
2022-12-03T02:13:39.301Z,3.25
2022-12-03T02:16:42.938Z,3.24
2022-12-03T02:19:46.783Z,3.32
2022-12-03T02:23:02.647Z,3.36
2022-12-03T02:26:05.679Z,3.41
2022-12-03T02:29:08.367Z,3.26
2022-12-03T02:32:11.276Z,3.30
2022-12-03T02:35:16.400Z,3.40
2022-12-03T02:38:23.218Z,3.41
2022-12-03T02:41:44.656Z,3.48
2022-12-03T02:44:47.643Z,3.48
2022-12-03T02:47:55.565Z,3.59
2022-12-03T02:51:02.649Z,3.64
2022-12-03T02:54:05.571Z,3.58
2022-12-03T02:57:08.531Z,3.63
2022-12-03T03:00:12.121Z,3.75
2022-12-03T03:03:18.320Z,3.76
2022-12-03T03:06:21.870Z,3.71
2022-12-03T03:09:24.825Z,3.80
2022-12-03T03:12:27.430Z,3.80
2022-12-03T03:15:30.360Z,3.83
2022-12-03T03:18:34.253Z,3.76
2022-12-03T03:21:37.111Z,3.97
2022-12-03T03:24:39.893Z,3.95
2022-12-03T03:27:43.560Z,3.92
2022-12-03T03:30:48.286Z,3.92
2022-12-03T03:33:51.863Z,3.89
2022-12-03T03:36:54.526Z,4.01
2022-12-03T03:39:58.171Z,4.07
2022-12-03T03:43:01.348Z,4.04
2022-12-03T03:46:06.781Z,4.03
2022-12-03T03:49:10.699Z,4.06
2022-12-03T03:52:14.192Z,4.06
2022-12-03T03:55:19.165Z,4.05
2022-12-03T03:58:22.426Z,3.99
2022-12-03T04:01:25.391Z,3.86
2022-12-03T04:04:34.634Z,3.80
2022-12-03T04:07:37.369Z,3.82
2022-12-03T04:10:58.803Z,3.90
2022-12-03T04:14:02.870Z,3.98
2022-12-03T04:17:05.693Z,3.95
2022-12-03T04:20:08.618Z,4.01
2022-12-03T04:23:11.639Z,3.93
2022-12-03T04:26:33.167Z,3.80
2022-12-03T04:29:36.065Z,3.79
2022-12-03T04:32:57.062Z,3.55
2022-12-03T04:36:00.014Z,3.56
2022-12-03T04:39:02.720Z,3.51
2022-12-03T04:42:06.516Z,3.47
2022-12-03T04:45:09.551Z,3.46
2022-12-03T04:48:12.564Z,3.55
2022-12-03T04:51:15.126Z,3.52
2022-12-03T04:54:18.045Z,3.37
2022-12-03T04:57:20.586Z,3.28
2022-12-03T05:00:23.523Z,3.31
2022-12-03T05:03:26.057Z,3.31
2022-12-03T05:06:30.988Z,3.36
2022-12-03T05:09:33.689Z,3.46
2022-12-03T05:12:37.559Z,3.46
2022-12-03T05:15:40.113Z,3.37
2022-12-03T05:18:46.042Z,3.34
2022-12-03T05:21:48.750Z,3.39
2022-12-03T05:24:51.854Z,3.43
2022-12-03T05:27:54.801Z,3.38
2022-12-03T05:30:57.759Z,3.38
2022-12-03T05:34:00.351Z,3.29
2022-12-03T05:37:03.482Z,3.31
2022-12-03T05:40:06.883Z,3.24
2022-12-03T05:43:09.765Z,3.20
2022-12-03T05:46:12.365Z,3.26
2022-12-03T05:49:15.237Z,3.38
2022-12-03T05:52:18.502Z,3.54
2022-12-03T05:55:21.865Z,3.52
2022-12-03T05:58:24.367Z,3.47
2022-12-03T06:01:27.255Z,3.44
2022-12-03T06:04:30.138Z,3.39
2022-12-03T06:07:32.718Z,3.45
2022-12-03T06:10:35.696Z,3.37
2022-12-03T06:13:38.268Z,3.33
2022-12-03T06:16:41.216Z,3.31
2022-12-03T06:19:43.953Z,3.46
2022-12-03T06:22:48.490Z,3.58
2022-12-03T06:25:51.241Z,3.64
2022-12-03T06:28:54.195Z,3.76
2022-12-03T06:31:56.783Z,3.87
2022-12-03T06:35:01.974Z,3.91
2022-12-03T06:38:04.615Z,3.95
2022-12-03T06:41:07.763Z,3.90
2022-12-03T06:44:11.416Z,3.83
2022-12-03T06:47:14.450Z,3.72
2022-12-03T06:50:17.131Z,3.75
2022-12-03T06:53:20.068Z,3.88
2022-12-03T06:56:22.815Z,3.81
2022-12-03T06:59:25.988Z,3.80
2022-12-03T07:02:28.677Z,3.93
2022-12-03T07:05:31.963Z,3.95
2022-12-03T07:08:34.798Z,3.99
2022-12-03T07:11:41.161Z,3.88
2022-12-03T07:14:43.750Z,3.91
2022-12-03T07:17:46.681Z,4.01
2022-12-03T07:20:52.028Z,4.02
2022-12-03T07:23:56.661Z,3.94
2022-12-03T07:27:00.626Z,3.97
2022-12-03T07:30:06.844Z,3.90
2022-12-03T07:33:09.621Z,3.84
2022-12-03T07:36:12.512Z,3.84
2022-12-03T07:39:15.593Z,3.68
2022-12-03T07:42:18.519Z,3.59
2022-12-03T07:45:22.446Z,3.61
2022-12-03T07:48:26.365Z,3.56
2022-12-03T07:51:32.190Z,3.58
2022-12-03T07:54:36.516Z,3.58
2022-12-03T07:57:39.775Z,3.53
2022-12-03T08:00:42.656Z,3.55
2022-12-03T08:03:45.663Z,3.58
2022-12-03T08:06:49.082Z,3.64
2022-12-03T08:09:52.061Z,3.57
2022-12-03T08:12:57.226Z,3.79
2022-12-03T08:16:11.851Z,3.89
2022-12-03T08:19:17.538Z,3.97
2022-12-03T08:22:20.666Z,4.11
2022-12-03T08:25:26.296Z,4.28
2022-12-03T08:28:29.334Z,4.30
2022-12-03T08:31:33.785Z,4.27
2022-12-03T08:34:44.795Z,4.20
2022-12-03T08:37:48.522Z,4.22
2022-12-03T08:40:53.029Z,4.34
2022-12-03T08:43:55.661Z,4.40
2022-12-03T08:47:10.462Z,4.50
2022-12-03T08:50:30.902Z,4.50
2022-12-03T08:53:37.824Z,4.41
2022-12-03T08:56:42.004Z,4.22
2022-12-03T08:59:45.826Z,4.28
2022-12-03T09:02:54.657Z,4.36
2022-12-03T09:05:57.733Z,4.47
2022-12-03T09:09:06.344Z,4.74
2022-12-03T09:12:09.832Z,4.81
2022-12-03T09:15:12.456Z,4.81
2022-12-03T09:18:15.339Z,4.90
2022-12-03T09:21:17.933Z,5.03
2022-12-03T09:24:21.232Z,4.95
2022-12-03T09:27:24.011Z,4.97
2022-12-03T09:30:27.029Z,4.99
2022-12-03T09:33:31.282Z,4.92
2022-12-03T09:36:34.433Z,4.89
2022-12-03T09:39:37.289Z,4.97
2022-12-03T09:42:40.531Z,4.95
2022-12-03T09:45:45.880Z,4.96
2022-12-03T09:48:48.960Z,4.93
2022-12-03T09:51:52.187Z,4.91
2022-12-03T09:54:55.399Z,4.88
2022-12-03T09:57:58.589Z,4.93
2022-12-03T10:01:01.590Z,5.13
2022-12-03T10:04:04.831Z,5.24
2022-12-03T10:07:09.693Z,5.18
2022-12-03T10:10:24.815Z,5.11
2022-12-03T10:13:30.931Z,5.17
2022-12-03T10:16:36.180Z,5.28
2022-12-03T10:19:39.803Z,5.32
2022-12-03T10:22:42.786Z,5.40
2022-12-03T10:25:54.317Z,5.26
2022-12-03T10:28:57.224Z,5.30
2022-12-03T10:32:01.641Z,5.32
2022-12-03T10:35:21.605Z,5.47
2022-12-03T10:38:24.249Z,5.52
2022-12-03T10:41:28.923Z,5.59
2022-12-03T10:44:34.142Z,5.56
2022-12-03T10:47:37.283Z,5.60
2022-12-03T10:51:03.436Z,5.50
2022-12-03T10:54:22.877Z,5.56
2022-12-03T10:57:25.757Z,5.55
2022-12-03T11:00:28.753Z,5.55
2022-12-03T11:03:35.255Z,5.44
2022-12-03T11:06:38.096Z,5.47
2022-12-03T11:09:44.129Z,5.65
2022-12-03T11:13:25.595Z,5.70
2022-12-03T11:16:40.276Z,5.76
2022-12-03T11:19:46.579Z,5.88
2022-12-03T11:22:53.797Z,5.94
2022-12-03T11:25:57.774Z,5.97
2022-12-03T11:29:00.519Z,6.12
2022-12-03T11:32:03.521Z,6.02
2022-12-03T11:35:19.496Z,6.10
2022-12-03T11:38:37.828Z,6.20
2022-12-03T11:41:40.507Z,6.12
2022-12-03T11:44:43.654Z,6.22
2022-12-03T11:47:59.838Z,6.31
2022-12-03T11:51:03.113Z,6.26
2022-12-03T11:54:05.786Z,6.25
2022-12-03T11:57:37.468Z,6.37
2022-12-03T12:00:51.969Z,6.35
2022-12-03T12:03:54.907Z,6.36
2022-12-03T12:06:57.600Z,6.35
2022-12-03T12:10:00.553Z,6.27
2022-12-03T12:13:03.386Z,6.31
2022-12-03T12:16:08.067Z,6.23
2022-12-03T12:19:29.672Z,6.04
2022-12-03T12:22:32.729Z,6.04
2022-12-03T12:25:40.870Z,6.00
2022-12-03T12:28:46.999Z,6.03
2022-12-03T12:31:53.915Z,6.04
2022-12-03T12:35:23.324Z,5.99
2022-12-03T12:38:28.287Z,6.05
2022-12-03T12:41:31.199Z,6.10
2022-12-03T12:44:33.732Z,6.14
2022-12-03T12:47:36.899Z,6.16
2022-12-03T12:50:43.897Z,6.14
2022-12-03T12:53:48.624Z,6.21
2022-12-03T12:56:51.361Z,6.16
2022-12-03T12:59:54.519Z,6.14
2022-12-03T13:03:03.304Z,6.21
2022-12-03T13:06:06.757Z,6.24
2022-12-03T13:09:15.232Z,6.27
2022-12-03T13:12:22.268Z,6.31
2022-12-03T13:15:52.241Z,6.35
2022-12-03T13:18:57.277Z,6.42
2022-12-03T13:22:15.799Z,6.34
2022-12-03T13:26:10.736Z,6.32
2022-12-03T13:29:19.755Z,6.23
2022-12-03T13:32:31.067Z,6.24
2022-12-03T13:35:36.443Z,6.14
2022-12-03T13:38:39.561Z,6.19
2022-12-03T13:42:01.815Z,6.17
2022-12-03T13:45:16.613Z,6.18
2022-12-03T13:48:23.335Z,6.26
2022-12-03T13:51:29.964Z,6.18
2022-12-03T13:54:32.751Z,6.14
2022-12-03T13:57:35.771Z,6.16
2022-12-03T14:00:38.513Z,6.17
2022-12-03T14:03:41.557Z,6.16
2022-12-03T14:06:44.123Z,6.31
2022-12-03T14:09:47.123Z,6.34
2022-12-03T14:12:51.017Z,6.21
2022-12-03T14:15:54.176Z,6.20
2022-12-03T14:18:56.814Z,6.20
2022-12-03T14:22:00.421Z,6.22
2022-12-03T14:25:03.051Z,6.20
2022-12-03T14:28:08.845Z,6.31
2022-12-03T14:31:11.586Z,6.24
2022-12-03T14:34:14.705Z,6.25
2022-12-03T14:37:17.839Z,6.18
2022-12-03T14:40:22.602Z,6.08
2022-12-03T14:43:25.413Z,6.04
2022-12-03T14:46:28.394Z,6.00
2022-12-03T14:49:31.289Z,5.92
2022-12-03T14:52:35.019Z,5.86
2022-12-03T14:55:38.422Z,5.97
2022-12-03T14:58:41.292Z,5.97
2022-12-03T15:01:44.222Z,5.95
2022-12-03T15:04:47.144Z,5.93
2022-12-03T15:07:49.734Z,5.87
2022-12-03T15:10:52.702Z,5.79
2022-12-03T15:13:55.191Z,5.93
2022-12-03T15:16:58.190Z,5.96
2022-12-03T15:20:00.881Z,6.07
2022-12-03T15:23:03.774Z,6.14
2022-12-03T15:26:06.614Z,5.94
2022-12-03T15:29:09.538Z,6.01
2022-12-03T15:32:14.530Z,6.09
2022-12-03T15:35:18.781Z,6.12
2022-12-03T15:38:21.403Z,6.25
2022-12-03T15:41:29.839Z,6.08
2022-12-03T15:44:32.805Z,6.16
2022-12-03T15:47:38.116Z,6.10
2022-12-03T15:50:41.435Z,6.04
2022-12-03T15:53:44.519Z,6.07
2022-12-03T15:56:47.189Z,6.01
2022-12-03T15:59:50.415Z,5.97
2022-12-03T16:02:54.759Z,6.10
2022-12-03T16:05:58.194Z,6.09
2022-12-03T16:09:00.812Z,6.14
2022-12-03T16:12:03.857Z,6.19
2022-12-03T16:15:06.849Z,6.33
2022-12-03T16:18:10.154Z,6.39
2022-12-03T16:21:12.757Z,6.38
2022-12-03T16:24:16.869Z,6.39
2022-12-03T16:27:25.479Z,6.33
2022-12-03T16:30:30.329Z,6.34
2022-12-03T16:33:32.951Z,6.33
2022-12-03T16:36:38.368Z,6.34
2022-12-03T16:39:42.509Z,6.40
2022-12-03T16:42:46.195Z,6.56
2022-12-03T16:46:02.988Z,6.60
2022-12-03T16:49:07.268Z,6.68
2022-12-03T16:52:10.720Z,6.86
2022-12-03T16:55:14.440Z,6.75
2022-12-03T16:58:21.342Z,6.64
2022-12-03T17:01:24.808Z,6.58
2022-12-03T17:04:30.093Z,6.60
2022-12-03T17:07:33.153Z,6.56
2022-12-03T17:10:36.001Z,6.66
2022-12-03T17:13:38.941Z,6.66
2022-12-03T17:16:41.442Z,6.82
2022-12-03T17:19:44.484Z,6.85
2022-12-03T17:22:47.942Z,6.75
2022-12-03T17:25:51.225Z,6.70
2022-12-03T17:28:53.923Z,6.72
2022-12-03T17:31:57.206Z,6.70
2022-12-03T17:35:00.347Z,6.67
2022-12-03T17:38:03.579Z,6.67
2022-12-03T17:41:07.580Z,6.59
2022-12-03T17:44:13.900Z,6.59
2022-12-03T17:47:19.316Z,6.52
2022-12-03T17:50:22.339Z,6.45
2022-12-03T17:53:25.751Z,6.44
2022-12-03T17:56:28.783Z,6.41
2022-12-03T17:59:31.666Z,6.45
2022-12-03T18:02:34.525Z,6.45
2022-12-03T18:05:37.561Z,6.41
2022-12-03T18:08:40.099Z,6.42
2022-12-03T18:11:43.404Z,6.36
2022-12-03T18:14:46.277Z,6.34
2022-12-03T18:17:49.356Z,6.37
2022-12-03T18:20:53.559Z,6.34
2022-12-03T18:24:00.395Z,6.33
2022-12-03T18:27:03.242Z,6.31
2022-12-03T18:30:07.551Z,6.33
2022-12-03T18:33:10.244Z,6.30
2022-12-03T18:36:22.402Z,6.31
2022-12-03T18:39:34.917Z,6.25
2022-12-03T18:42:38.228Z,6.29
2022-12-03T18:45:41.114Z,6.26
2022-12-03T18:48:48.748Z,6.28
2022-12-03T18:51:57.329Z,6.33
2022-12-03T18:55:02.882Z,6.28
2022-12-03T18:58:05.597Z,6.26
2022-12-03T19:01:16.577Z,6.25
2022-12-03T19:04:19.881Z,6.16
2022-12-03T19:07:23.377Z,6.21
2022-12-03T19:10:26.597Z,6.23
2022-12-03T19:13:30.983Z,6.17
2022-12-03T19:16:36.289Z,6.08
2022-12-03T19:19:39.776Z,6.14
2022-12-03T19:22:43.362Z,6.12
2022-12-03T19:26:01.255Z,6.13
2022-12-03T19:29:04.828Z,6.07
2022-12-03T19:32:11.229Z,6.12
2022-12-03T19:35:13.831Z,6.04
2022-12-03T19:38:18.417Z,6.06
2022-12-03T19:41:21.508Z,6.03
2022-12-03T19:44:24.732Z,6.03
2022-12-03T19:47:27.906Z,6.07
2022-12-03T19:50:31.226Z,6.11
2022-12-03T19:53:37.318Z,6.11
2022-12-03T19:56:40.820Z,6.08
2022-12-03T19:59:43.807Z,6.11
2022-12-03T20:02:49.421Z,6.11
2022-12-03T20:05:52.909Z,6.08
2022-12-03T20:08:59.721Z,6.11
2022-12-03T20:12:03.222Z,6.08
2022-12-03T20:15:06.637Z,6.06
2022-12-03T20:18:11.024Z,6.07
2022-12-03T20:21:16.986Z,6.05
2022-12-03T20:24:20.449Z,6.10
2022-12-03T20:27:24.961Z,6.11
2022-12-03T20:30:28.336Z,6.17
2022-12-03T20:33:31.367Z,6.24
2022-12-03T20:36:34.945Z,6.25
2022-12-03T20:39:39.467Z,6.29
2022-12-03T20:42:48.833Z,6.34
2022-12-03T20:45:52.199Z,6.35
2022-12-03T20:48:56.147Z,6.38
2022-12-03T20:52:02.857Z,6.40
2022-12-03T20:55:09.284Z,6.33
2022-12-03T20:58:12.538Z,6.34
2022-12-03T21:01:21.146Z,6.40
2022-12-03T21:04:25.723Z,6.47
2022-12-03T21:07:29.341Z,6.43
2022-12-03T21:10:45.189Z,6.46
2022-12-03T21:13:49.931Z,6.45
2022-12-03T21:17:11.971Z,6.43
2022-12-03T21:20:20.942Z,6.46
2022-12-03T21:23:24.678Z,6.46
2022-12-03T21:26:27.902Z,6.49
2022-12-03T21:29:30.785Z,6.51
2022-12-03T21:32:34.483Z,6.51
2022-12-03T21:35:37.967Z,6.55
2022-12-03T21:38:42.648Z,6.51
2022-12-03T21:42:25.950Z,6.50
2022-12-03T21:45:11.584Z,6.57
2022-12-03T21:48:19.237Z,6.58
2022-12-03T21:51:22.730Z,6.59
2022-12-03T21:54:25.785Z,6.61
2022-12-03T21:57:28.945Z,6.60
2022-12-03T22:00:31.969Z,6.64
2022-12-03T22:03:34.789Z,6.53
2022-12-03T22:06:37.356Z,6.55
2022-12-03T22:09:40.242Z,6.54
2022-12-03T22:12:43.814Z,6.52
2022-12-03T22:15:46.797Z,6.44
2022-12-03T22:18:49.948Z,6.35
2022-12-03T22:21:53.832Z,6.33
2022-12-03T22:24:57.445Z,6.36
2022-12-03T22:28:00.294Z,6.35
2022-12-03T22:31:10.194Z,6.27
2022-12-03T22:34:13.386Z,6.31
2022-12-03T22:37:17.071Z,6.37
2022-12-03T22:40:19.861Z,6.43
2022-12-03T22:43:22.708Z,6.37
2022-12-03T22:46:25.634Z,6.42
2022-12-03T22:49:28.461Z,6.30
2022-12-03T22:52:31.376Z,6.27
2022-12-03T22:55:33.997Z,6.25
2022-12-03T22:58:38.862Z,6.16
2022-12-03T23:01:42.126Z,6.12
2022-12-03T23:04:44.996Z,6.14
2022-12-03T23:07:48.783Z,6.08
2022-12-03T23:10:52.960Z,6.09
2022-12-03T23:13:55.910Z,6.03
2022-12-03T23:16:58.750Z,5.89
2022-12-03T23:20:01.829Z,5.86
2022-12-03T23:23:04.721Z,5.97
2022-12-03T23:26:10.807Z,5.85
2022-12-03T23:29:13.912Z,5.78
2022-12-03T23:32:16.555Z,5.89
2022-12-03T23:35:19.467Z,5.90
2022-12-03T23:38:22.215Z,5.91
2022-12-03T23:41:26.139Z,5.93
2022-12-03T23:44:28.749Z,5.93
2022-12-03T23:47:32.709Z,5.98
2022-12-03T23:50:38.720Z,5.98
2022-12-03T23:53:41.666Z,5.99
2022-12-03T23:56:44.381Z,5.98
2022-12-03T23:59:47.235Z,5.89
